Terminal Aerodrome Forecast
Issued by NWS St Louis, MO

Home | Current Version | Previous Version | Text Only | Print | Product List | Glossary On
Versions: 1 2 3 4 5 6 7 8 9 10 11 12
000
FTUS43 KLSX 281720
TAFCOU
TAF
KCOU 281720Z 2818/2918 16012KT P6SM FEW050 BKN150
     FM290100 18009KT P6SM BKN120
     FM290700 17006KT P6SM VCTS SCT050CB BKN120
     FM291200 18008KT P6SM BKN040 OVC080=

USA.gov is the U.S. government's official web portal to all federal, state and local government web resources and services.